createdAt,value
2019-04-22T08:53:45.183Z,22.86
2019-04-22T08:54:31.181Z,23.00
2019-04-22T08:55:32.886Z,23.07
2019-04-22T08:56:43.682Z,23.11
2019-04-22T08:57:26.078Z,23.14
2019-04-22T08:58:31.687Z,23.29
2019-04-22T08:59:12.468Z,23.54
2019-04-22T09:00:12.995Z,23.73
2019-04-22T09:01:11.283Z,23.82
2019-04-22T09:02:17.458Z,23.87
2019-04-22T09:03:04.374Z,24.79
2019-04-22T09:04:02.261Z,26.60
2019-04-22T09:16:30.248Z,32.29
2019-04-22T09:17:20.962Z,32.38
2019-04-22T09:18:36.385Z,32.54
2019-04-22T09:19:20.836Z,32.65
2019-04-22T09:21:15.098Z,32.58
2019-04-22T09:22:17.533Z,32.59
2019-04-22T09:23:17.606Z,32.54
2019-04-22T20:06:38.475Z,16.40
2019-04-22T20:07:31.379Z,17.70
2019-04-22T20:08:31.010Z,18.14
2019-04-22T20:09:29.929Z,17.70
2019-04-22T20:10:24.679Z,17.04
2019-04-22T20:11:26.542Z,16.39
2019-04-22T20:12:16.561Z,15.84
2019-04-22T20:14:16.878Z,14.97
2019-04-22T20:15:12.437Z,14.68
2019-04-22T20:15:58.363Z,14.46
2019-04-22T20:17:02.601Z,14.28
2019-04-22T20:18:21.998Z,14.14
2019-04-22T20:18:56.927Z,14.05
2019-04-22T20:20:17.607Z,13.94
2019-04-22T20:20:59.688Z,13.88
2019-04-22T20:21:51.594Z,13.81
2019-04-22T20:22:44.903Z,13.77
2019-04-22T20:23:38.182Z,13.73
2019-04-22T20:24:27.886Z,13.71
2019-04-22T20:25:34.846Z,13.68
2019-04-22T20:26:40.805Z,13.68
2019-04-22T20:27:30.315Z,13.67
2019-04-22T20:28:31.080Z,13.67
2019-04-22T20:30:17.198Z,13.64
2019-04-22T20:31:18.577Z,13.64
2019-04-22T20:32:18.516Z,13.64
2019-04-22T20:33:08.513Z,13.64
2019-04-22T20:34:14.387Z,13.64
2019-04-22T20:35:07.965Z,13.67
2019-04-22T20:36:12.610Z,13.69
2019-04-22T20:38:02.896Z,13.67
2019-04-22T20:38:56.580Z,13.69
2019-04-22T20:39:57.232Z,13.67
2019-04-22T20:40:50.784Z,13.68
2019-04-22T20:41:46.130Z,13.68
2019-04-22T20:42:52.780Z,13.68
2019-04-22T20:43:50.017Z,13.67
2019-04-22T20:44:43.929Z,13.65
2019-04-22T20:45:35.170Z,13.64
2019-04-22T20:46:31.566Z,13.60
2019-04-22T20:47:25.239Z,13.57
2019-04-22T20:48:16.936Z,13.57
2019-04-22T20:49:27.616Z,13.55
2019-04-22T20:50:25.021Z,13.52
2019-04-22T20:51:19.511Z,13.51
2019-04-22T20:52:24.047Z,13.47
2019-04-22T20:53:11.563Z,13.44
2019-04-22T20:54:08.895Z,13.44
2019-04-22T20:55:02.734Z,13.50
2019-04-22T20:56:00.629Z,13.50
2019-04-22T20:56:59.648Z,13.48
2019-04-22T20:58:02.688Z,13.46
2019-04-22T20:58:53.663Z,13.44
2019-04-22T20:59:48.266Z,13.50
2019-04-22T21:00:40.264Z,13.50
2019-04-22T21:01:47.685Z,13.47
2019-04-22T21:02:32.730Z,13.43
2019-04-22T21:03:28.450Z,13.40
2019-04-22T21:04:27.816Z,13.36
2019-04-22T21:05:26.514Z,13.35
2019-04-22T21:06:29.323Z,13.32
2019-04-22T21:07:20.109Z,13.30
2019-04-22T21:08:26.646Z,13.27
2019-04-22T21:09:23.260Z,13.27
2019-04-22T21:10:13.216Z,13.25
2019-04-22T21:11:12.661Z,13.26
2019-04-22T21:12:05.085Z,13.26
2019-04-22T21:13:01.740Z,13.23
2019-04-22T21:14:04.428Z,13.25
2019-04-22T21:15:08.112Z,13.26
2019-04-22T21:16:04.626Z,13.26
2019-04-22T21:16:56.314Z,13.22
2019-04-22T21:17:53.368Z,13.30
2019-04-22T21:18:44.221Z,13.34
2019-04-22T21:19:56.805Z,13.35
2019-04-22T21:20:51.844Z,13.35
2019-04-22T21:21:46.345Z,13.32
2019-04-22T21:22:42.049Z,13.27
2019-04-22T21:23:29.226Z,13.26
2019-04-22T21:24:32.262Z,13.22
2019-04-22T21:25:24.000Z,13.19
2019-04-22T21:26:23.998Z,13.18
2019-04-22T21:27:43.862Z,13.14
2019-04-22T21:28:21.882Z,13.11
2019-04-22T21:29:12.607Z,13.06
2019-04-22T21:30:10.744Z,13.06
2019-04-22T21:31:10.593Z,13.07
2019-04-22T21:32:09.010Z,13.05
2019-04-22T21:32:57.764Z,13.02
2019-04-22T21:33:59.143Z,12.97
2019-04-22T21:35:06.659Z,12.96
2019-04-22T21:36:56.051Z,12.88
2019-04-22T21:37:57.072Z,12.80
2019-04-22T21:38:44.025Z,12.72
2019-04-22T21:39:35.345Z,12.67
2019-04-22T21:40:39.865Z,12.61
2019-04-22T21:41:37.629Z,12.56
2019-04-22T21:42:36.694Z,12.55
2019-04-22T21:43:38.543Z,12.51
2019-04-22T21:44:29.705Z,12.47
2019-04-22T21:45:18.694Z,12.42
2019-04-22T21:46:27.012Z,12.36
2019-04-22T21:47:22.380Z,12.35
2019-04-22T21:48:28.091Z,12.38
2019-04-22T21:49:05.831Z,12.36
2019-04-22T21:50:28.225Z,12.35
2019-04-22T21:51:16.257Z,12.34
2019-04-22T21:52:06.446Z,12.31
2019-04-22T21:53:06.765Z,12.28
2019-04-22T21:54:06.849Z,12.27
2019-04-22T21:54:59.668Z,12.27
2019-04-22T21:56:00.036Z,12.28
2019-04-22T21:57:03.360Z,12.30
2019-04-22T21:57:50.186Z,12.27
2019-04-22T21:58:43.303Z,12.22
2019-04-22T21:59:43.330Z,12.21
2019-04-22T22:00:44.655Z,12.18
2019-04-22T22:01:44.736Z,12.17
2019-04-22T22:02:31.413Z,12.17
2019-04-22T22:03:33.513Z,12.18
2019-04-22T22:04:24.967Z,12.17
2019-04-22T22:05:15.885Z,12.15
2019-04-22T22:06:10.882Z,12.14
2019-04-22T22:07:03.229Z,12.13
2019-04-22T22:08:19.150Z,12.15
2019-04-22T22:09:15.693Z,12.15
2019-04-22T22:10:05.964Z,12.15
2019-04-22T22:11:02.631Z,12.15
2019-04-22T22:11:57.507Z,12.17
2019-04-22T22:13:00.285Z,12.15
2019-04-22T22:13:56.419Z,12.15
2019-04-22T22:14:51.737Z,12.14
2019-04-22T22:15:49.562Z,12.13
2019-04-22T22:16:38.375Z,12.11
2019-04-22T22:17:44.246Z,12.13
2019-04-22T22:18:30.666Z,12.14
2019-04-22T22:19:39.696Z,12.14
2019-04-22T22:20:34.081Z,12.10
2019-04-22T22:21:43.432Z,12.10
2019-04-22T22:22:42.468Z,12.09
2019-04-22T22:24:22.921Z,12.02
2019-04-22T22:25:21.178Z,11.98
2019-04-22T22:26:09.766Z,11.97
2019-04-22T22:27:17.202Z,11.96
2019-04-22T22:28:21.944Z,11.93
2019-04-22T22:29:10.506Z,11.92
2019-04-22T22:30:19.130Z,11.89
2019-04-22T22:31:08.269Z,11.85
2019-04-22T22:32:02.149Z,11.85
2019-04-22T22:33:04.403Z,11.81
2019-04-22T22:33:52.791Z,11.77
2019-04-22T22:34:50.768Z,11.72
2019-04-22T22:35:45.586Z,11.69
2019-04-22T22:36:36.682Z,11.67
2019-04-22T22:37:28.202Z,11.64
2019-04-22T22:38:29.734Z,11.63
2019-04-22T22:39:28.112Z,11.61
2019-04-22T22:40:15.788Z,11.61
2019-04-22T22:41:09.887Z,11.60
2019-04-22T22:42:05.800Z,11.60
2019-04-22T22:43:11.713Z,11.57
2019-04-22T22:44:06.671Z,11.56
2019-04-22T22:45:07.793Z,11.56
2019-04-22T22:46:06.300Z,11.53
2019-04-22T22:47:08.687Z,11.53
2019-04-22T22:48:15.188Z,11.52
2019-04-22T22:49:06.409Z,11.51
2019-04-22T22:50:02.987Z,11.52
2019-04-22T22:50:55.066Z,11.55
2019-04-22T22:52:11.881Z,11.59
2019-04-22T22:52:59.385Z,11.64
2019-04-22T22:53:57.069Z,11.64
2019-04-22T22:54:46.464Z,11.61
2019-04-22T22:55:46.193Z,11.63
2019-04-22T22:56:51.703Z,11.63
2019-04-22T22:57:41.461Z,11.61
2019-04-22T22:58:34.297Z,11.61
2019-04-22T22:59:34.000Z,11.60
2019-04-22T23:00:30.423Z,11.56
2019-04-22T23:01:26.742Z,11.52
2019-04-22T23:02:25.838Z,11.51
2019-04-22T23:04:23.087Z,11.48
2019-04-22T23:05:19.943Z,11.50
2019-04-22T23:06:13.375Z,11.50
2019-04-22T23:07:11.456Z,11.51
2019-04-22T23:08:07.788Z,11.51
2019-04-22T23:09:04.272Z,11.48
2019-04-22T23:11:00.978Z,11.52
2019-04-22T23:12:12.190Z,11.52
2019-04-22T23:13:03.229Z,11.52
2019-04-22T23:13:43.025Z,11.50
2019-04-22T23:14:44.207Z,11.47
2019-04-22T23:15:37.116Z,11.46
2019-04-22T23:16:28.183Z,11.43
2019-04-22T23:17:19.909Z,11.43
2019-04-22T23:18:10.194Z,11.46
2019-04-22T23:19:08.975Z,11.46
2019-04-22T23:20:05.737Z,11.46
2019-04-22T23:21:01.414Z,11.47
2019-04-22T23:22:05.626Z,11.48
2019-04-22T23:23:14.077Z,11.48
2019-04-22T23:24:14.543Z,11.50
2019-04-22T23:25:14.511Z,11.47
2019-04-22T23:26:07.426Z,11.48
2019-04-22T23:26:59.854Z,11.47
2019-04-22T23:27:54.810Z,11.47
2019-04-22T23:28:50.346Z,11.48
2019-04-22T23:29:45.943Z,11.47
2019-04-22T23:30:38.271Z,11.46
2019-04-22T23:31:37.219Z,11.43
2019-04-22T23:32:35.863Z,11.39
2019-04-22T23:33:39.239Z,11.35
2019-04-22T23:34:32.828Z,11.31
2019-04-22T23:35:33.265Z,11.30
2019-04-22T23:36:23.736Z,11.27
2019-04-22T23:37:21.836Z,11.27
2019-04-22T23:38:23.109Z,11.27
2019-04-22T23:39:22.699Z,11.30
2019-04-22T23:40:24.452Z,11.28
2019-04-22T23:41:24.564Z,11.31
2019-04-22T23:42:20.903Z,11.34
2019-04-22T23:43:15.474Z,11.35
2019-04-22T23:44:10.026Z,11.35
2019-04-22T23:45:03.610Z,11.34
2019-04-22T23:45:59.384Z,11.32
2019-04-22T23:46:56.693Z,11.31
2019-04-22T23:47:45.962Z,11.27
2019-04-22T23:48:44.982Z,11.23
2019-04-22T23:49:42.068Z,11.22
2019-04-22T23:50:47.710Z,11.17
2019-04-22T23:51:51.201Z,11.14
2019-04-22T23:52:35.971Z,11.10
2019-04-22T23:53:57.525Z,11.09
2019-04-22T23:54:38.983Z,11.05
2019-04-22T23:55:33.804Z,11.02
2019-04-22T23:56:28.081Z,11.00
2019-04-22T23:57:27.145Z,10.93
2019-04-22T23:58:35.535Z,10.92
2019-04-22T23:59:23.296Z,10.88
